createdAt,value
2017-11-06T00:00:32.635Z,5.60
2017-11-06T00:02:40.181Z,5.80
2017-11-06T00:04:46.776Z,6.53
2017-11-06T00:06:53.558Z,4.87
2017-11-06T00:09:01.620Z,5.10
2017-11-06T00:11:09.871Z,5.10
2017-11-06T00:13:15.963Z,6.40
2017-11-06T00:15:26.891Z,3.90
2017-11-06T00:17:32.933Z,4.87
2017-11-06T00:19:38.595Z,4.57
2017-11-06T00:21:45.178Z,10.13
2017-11-06T00:23:51.264Z,4.50
2017-11-06T00:25:58.398Z,3.97
2017-11-06T00:28:04.047Z,4.33
2017-11-06T00:30:10.462Z,4.80
2017-11-06T00:32:15.983Z,5.10
2017-11-06T00:34:22.332Z,4.20
2017-11-06T00:36:28.827Z,4.77
2017-11-06T00:38:35.090Z,4.30
2017-11-06T00:40:40.981Z,4.50
2017-11-06T00:42:48.035Z,5.53
2017-11-06T00:44:55.777Z,4.43
2017-11-06T00:47:03.739Z,4.27
2017-11-06T00:49:14.522Z,5.13
2017-11-06T00:51:20.290Z,4.27
2017-11-06T00:53:27.064Z,4.70
2017-11-06T00:55:33.116Z,4.53
2017-11-06T00:57:39.677Z,5.17
2017-11-06T00:59:45.299Z,5.33
2017-11-06T01:01:51.704Z,4.07
2017-11-06T01:03:58.354Z,6.33
2017-11-06T01:06:03.810Z,4.30
2017-11-06T01:08:12.452Z,4.70
2017-11-06T01:10:18.759Z,6.53
2017-11-06T01:12:24.468Z,4.37
2017-11-06T01:14:30.594Z,5.77
2017-11-06T01:16:37.163Z,6.70
2017-11-06T01:18:42.866Z,7.00
2017-11-06T01:20:49.181Z,5.07
2017-11-06T01:22:55.877Z,4.40
2017-11-06T01:25:02.813Z,8.60
2017-11-06T01:27:10.766Z,4.17
2017-11-06T01:29:16.996Z,5.13
2017-11-06T01:31:22.943Z,5.27
2017-11-06T01:33:29.048Z,5.03
2017-11-06T01:35:34.557Z,7.70
2017-11-06T01:37:40.216Z,5.23
2017-11-06T01:39:46.865Z,4.50
2017-11-06T01:41:53.037Z,4.13
2017-11-06T01:43:59.100Z,4.73
2017-11-06T01:46:09.442Z,5.10
2017-11-06T01:48:15.664Z,5.63
2017-11-06T01:50:21.506Z,5.00
2017-11-06T01:52:28.671Z,3.97
2017-11-06T01:54:35.494Z,5.40
2017-11-06T01:56:42.038Z,6.03
2017-11-06T01:58:48.644Z,5.23
2017-11-06T02:00:57.880Z,3.70
2017-11-06T02:03:05.697Z,5.83
2017-11-06T02:05:11.686Z,6.13
2017-11-06T02:07:17.734Z,4.20
2017-11-06T02:09:23.558Z,4.23
2017-11-06T02:11:29.316Z,4.80
2017-11-06T02:13:35.330Z,4.77
2017-11-06T02:15:41.329Z,5.10
2017-11-06T02:17:46.947Z,7.23
2017-11-06T02:19:54.808Z,4.73
2017-11-06T02:22:03.985Z,5.43
2017-11-06T02:24:09.904Z,5.63
2017-11-06T03:09:32.306Z,5.77
2017-11-06T03:11:48.936Z,5.07
2017-11-06T03:13:55.646Z,4.27
2017-11-06T03:16:01.243Z,6.73
2017-11-06T03:18:07.248Z,6.40
2017-11-06T03:20:14.152Z,6.20
2017-11-06T03:22:20.461Z,7.90
2017-11-06T03:24:26.074Z,4.07
2017-11-06T03:26:31.684Z,5.17
2017-11-06T03:28:44.698Z,4.27
2017-11-06T03:30:51.239Z,5.57
2017-11-06T03:32:58.018Z,6.13
2017-11-06T03:35:03.503Z,4.77
2017-11-06T03:37:09.046Z,4.07
2017-11-06T03:39:14.833Z,4.90
2017-11-06T03:41:20.287Z,4.50
2017-11-06T03:43:26.035Z,5.67
2017-11-06T03:45:32.294Z,5.60
2017-11-06T03:47:38.107Z,4.13
2017-11-06T03:49:43.530Z,4.43
2017-11-06T03:51:49.570Z,4.47
2017-11-06T03:53:55.936Z,6.17
2017-11-06T03:56:02.849Z,5.50
2017-11-06T03:58:11.101Z,5.20
2017-11-06T04:00:16.946Z,9.73
2017-11-06T04:02:24.351Z,5.43
2017-11-06T04:04:30.118Z,5.63
2017-11-06T04:06:35.636Z,4.57
2017-11-06T04:08:41.211Z,4.80
2017-11-06T04:10:46.864Z,7.40
2017-11-06T04:12:53.810Z,7.07
2017-11-06T04:15:00.116Z,4.93
2017-11-06T04:17:08.108Z,5.80
2017-11-06T04:19:14.055Z,4.97
2017-11-06T04:21:19.607Z,4.60
2017-11-06T04:23:27.213Z,5.07
2017-11-06T04:25:33.653Z,4.47
2017-11-06T04:27:39.292Z,4.67
2017-11-06T04:29:45.093Z,5.10
2017-11-06T04:31:52.922Z,5.43
2017-11-06T04:33:58.964Z,5.70
2017-11-06T04:36:07.267Z,5.57
2017-11-06T04:38:14.152Z,6.20
2017-11-06T04:40:19.790Z,5.33
2017-11-06T04:42:27.103Z,4.60
2017-11-06T04:44:32.728Z,6.93
2017-11-06T04:46:38.222Z,5.23
2017-11-06T04:48:43.682Z,4.97
2017-11-06T04:50:51.929Z,5.77
2017-11-06T04:53:02.876Z,3.57
2017-11-06T04:55:12.999Z,4.70
2017-11-06T04:57:18.839Z,3.97
2017-11-06T04:59:25.057Z,5.97
2017-11-06T05:01:30.787Z,7.80
2017-11-06T05:03:37.385Z,17.07
2017-11-06T05:05:43.488Z,17.03
2017-11-06T05:07:49.272Z,12.60
2017-11-06T05:09:57.025Z,19.43
2017-11-06T05:12:07.788Z,18.40
2017-11-06T05:14:13.275Z,22.67
2017-11-06T05:16:19.924Z,22.00
2017-11-06T05:18:27.441Z,15.10
2017-11-06T05:20:36.141Z,12.37
2017-11-06T05:22:42.579Z,10.70
2017-11-06T05:24:48.494Z,11.93
2017-11-06T05:26:54.179Z,20.53
2017-11-06T05:29:03.030Z,15.03
2017-11-06T05:31:12.156Z,9.30
2017-11-06T05:33:26.469Z,13.17
2017-11-06T05:35:33.996Z,8.80
2017-11-06T05:37:51.005Z,37.63
2017-11-06T05:40:09.197Z,31.53
2017-11-06T05:42:23.026Z,17.97
2017-11-06T05:44:39.245Z,15.27
2017-11-06T05:46:54.640Z,13.50
2017-11-06T05:49:07.116Z,10.67
2017-11-06T05:51:16.346Z,7.93
2017-11-06T05:53:25.274Z,9.53
2017-11-06T05:55:36.478Z,9.77
2017-11-06T05:57:43.186Z,11.30
2017-11-06T06:02:05.700Z,9.50
2017-11-06T06:04:13.378Z,10.40
2017-11-06T06:06:28.540Z,11.67
2017-11-06T06:08:35.006Z,8.13
2017-11-06T06:10:42.785Z,8.10
2017-11-06T06:12:50.131Z,127.67
2017-11-06T06:14:57.888Z,51.13
2017-11-06T06:17:11.002Z,20.37
2017-11-06T06:19:18.954Z,57.50
2017-11-06T06:21:26.161Z,69.37
2017-11-06T06:23:37.048Z,29.70
2017-11-06T06:25:43.751Z,24.10
2017-11-06T06:27:52.351Z,12.60
2017-11-06T06:29:59.838Z,15.10
2017-11-06T06:32:07.845Z,10.50
2017-11-06T06:34:15.157Z,18.20
2017-11-06T06:36:21.182Z,11.07
2017-11-06T06:38:28.815Z,7.57
2017-11-06T06:40:37.120Z,7.20
2017-11-06T06:42:47.120Z,6.50
2017-11-06T06:44:55.829Z,27.73
2017-11-06T06:47:10.367Z,9.13
2017-11-06T06:49:16.266Z,76.47
2017-11-06T06:51:25.197Z,8.93
2017-11-06T06:53:36.467Z,4.47
2017-11-06T06:55:42.698Z,4.10
2017-11-06T06:57:54.065Z,3.30
2017-11-06T07:00:09.264Z,3.43
2017-11-06T07:02:15.099Z,5.37
2017-11-06T07:04:22.263Z,3.30
2017-11-06T07:06:30.458Z,3.30
2017-11-06T07:08:37.647Z,3.30
2017-11-06T07:10:46.511Z,4.13
2017-11-06T07:12:55.012Z,3.80
2017-11-06T07:15:14.668Z,444.73
2017-11-06T07:17:24.837Z,40.87
2017-11-06T07:19:30.553Z,32.13
2017-11-06T07:21:40.174Z,6.37
2017-11-06T07:23:47.202Z,3.20
2017-11-06T07:25:58.170Z,4.53
2017-11-06T07:28:10.090Z,4.13
2017-11-06T07:30:18.387Z,3.33
2017-11-06T07:32:29.648Z,2.83
2017-11-06T07:34:50.264Z,2.77
2017-11-06T07:36:58.227Z,3.00
2017-11-06T07:39:07.735Z,2.77
2017-11-06T07:41:14.500Z,2.60
2017-11-06T07:43:21.264Z,3.97
2017-11-06T07:45:26.957Z,2.50
2017-11-06T07:47:32.670Z,2.50
2017-11-06T07:49:39.208Z,3.80
2017-11-06T07:51:44.875Z,2.47
2017-11-06T07:53:52.155Z,2.60
2017-11-06T07:56:04.582Z,3.33
2017-11-06T07:58:11.415Z,2.50
2017-11-06T08:00:16.947Z,2.27
2017-11-06T08:02:22.839Z,3.17
2017-11-06T08:04:28.686Z,2.90
2017-11-06T08:06:34.634Z,2.20
2017-11-06T08:08:40.287Z,2.50
2017-11-06T08:10:46.276Z,2.50
2017-11-06T08:12:52.485Z,2.50
2017-11-06T08:14:58.968Z,2.40
2017-11-06T08:17:07.340Z,2.50
2017-11-06T08:19:14.179Z,2.40
2017-11-06T08:21:20.829Z,2.57
2017-11-06T08:23:27.668Z,2.20
2017-11-06T08:25:35.400Z,12.17
2017-11-06T08:27:42.706Z,2.83
2017-11-06T08:29:50.477Z,2.63
2017-11-06T08:31:57.503Z,2.53
2017-11-06T08:34:06.790Z,531.73
2017-11-06T08:38:29.606Z,4.13
2017-11-06T08:40:35.342Z,2.47
2017-11-06T08:42:41.343Z,43.83
2017-11-06T08:44:47.346Z,76.23
2017-11-06T08:46:55.954Z,566.00
2017-11-06T08:49:03.631Z,38.60
2017-11-06T08:51:09.890Z,354.60
2017-11-06T08:53:16.832Z,151.40
2017-11-06T08:55:23.304Z,27.53
2017-11-06T08:57:29.029Z,3.13
2017-11-06T08:59:36.359Z,2.60
2017-11-06T09:01:42.501Z,2.83
2017-11-06T09:03:50.156Z,1.87
2017-11-06T09:05:57.032Z,3.00
2017-11-06T09:08:09.119Z,2.30
2017-11-06T09:10:17.633Z,2.43
2017-11-06T09:12:30.762Z,2.33
2017-11-06T09:14:37.331Z,2.10
2017-11-06T09:16:45.852Z,2.10
2017-11-06T09:18:55.414Z,2.37
2017-11-06T09:21:06.429Z,2.30
2017-11-06T09:23:12.648Z,2.10
2017-11-06T09:25:18.563Z,2.17
2017-11-06T09:27:24.561Z,2.80
2017-11-06T09:29:31.323Z,1.83
2017-11-06T09:31:38.611Z,24.30
2017-11-06T09:33:44.518Z,83.27
2017-11-06T09:35:52.453Z,107.17
2017-11-06T09:37:58.932Z,7.60
2017-11-06T09:40:10.149Z,5.83
2017-11-06T09:42:15.993Z,2.67
2017-11-06T09:44:22.043Z,9.70
2017-11-06T09:46:29.790Z,2.50
2017-11-06T09:48:37.808Z,2.87
2017-11-06T09:50:44.302Z,6.43
2017-11-06T09:52:50.501Z,2.30
2017-11-06T09:54:56.796Z,2.40
2017-11-06T09:57:07.680Z,2.27
2017-11-06T09:59:15.683Z,2.23
2017-11-06T10:01:22.594Z,2.40
2017-11-06T10:03:29.971Z,2.13
2017-11-06T10:05:36.021Z,2.00
2017-11-06T10:07:42.206Z,2.10
2017-11-06T10:09:52.696Z,2.00
2017-11-06T10:12:00.018Z,1.70
2017-11-06T10:14:11.618Z,3.23
2017-11-06T10:16:17.869Z,2.40
2017-11-06T10:18:24.163Z,1.83
2017-11-06T10:20:30.139Z,1.97
2017-11-06T10:22:35.933Z,1.77
2017-11-06T10:24:41.500Z,2.00
2017-11-06T10:26:47.828Z,1.90
2017-11-06T10:28:55.204Z,2.50
2017-11-06T10:31:03.563Z,2.00
2017-11-06T10:33:10.399Z,2.70
2017-11-06T10:35:16.909Z,2.13
2017-11-06T10:37:23.242Z,1.83
2017-11-06T10:39:29.833Z,2.07
2017-11-06T10:41:35.926Z,1.87
2017-11-06T10:43:41.987Z,2.13
2017-11-06T10:45:51.258Z,2.10
2017-11-06T10:47:58.006Z,2.20
2017-11-06T10:50:04.859Z,2.00
2017-11-06T10:52:10.939Z,1.67
2017-11-06T10:54:20.688Z,5.10
2017-11-06T10:56:29.184Z,1.63
2017-11-06T10:58:37.212Z,2.03
2017-11-06T11:00:43.315Z,1.80
2017-11-06T11:02:50.496Z,1.90
2017-11-06T11:04:59.171Z,1.90
2017-11-06T11:07:10.082Z,1.93
2017-11-06T11:09:16.921Z,2.40
2017-11-06T11:11:23.335Z,1.90
2017-11-06T11:13:32.259Z,1.80
2017-11-06T11:15:38.274Z,1.97
2017-11-06T11:17:44.069Z,1.97
2017-11-06T11:19:50.701Z,2.30
2017-11-06T11:21:57.253Z,5.10
2017-11-06T11:24:07.118Z,1.70
2017-11-06T11:26:12.896Z,1.70
2017-11-06T11:28:18.979Z,1.80
2017-11-06T11:30:25.139Z,1.70
2017-11-06T11:32:31.771Z,2.00
2017-11-06T11:34:38.660Z,1.70
2017-11-06T11:36:44.821Z,1.60
2017-11-06T11:38:51.616Z,1.83
2017-11-06T11:41:01.909Z,1.70
2017-11-06T11:43:09.814Z,1.77
2017-11-06T11:45:17.990Z,1.90
2017-11-06T11:47:23.670Z,1.60
2017-11-06T11:49:30.344Z,1.50
2017-11-06T11:51:36.022Z,1.20
2017-11-06T11:53:42.111Z,1.63
2017-11-06T11:55:48.455Z,1.63
2017-11-06T11:57:56.787Z,2.23
2017-11-06T12:00:06.526Z,1.67
2017-11-06T12:02:12.385Z,1.73
2017-11-06T12:04:18.399Z,1.80
2017-11-06T12:06:24.119Z,1.87
2017-11-06T12:08:30.720Z,2.03
2017-11-06T12:10:36.325Z,2.20
2017-11-06T12:12:42.347Z,1.63
2017-11-06T12:14:49.705Z,2.53
2017-11-06T12:16:58.728Z,3.30
2017-11-06T12:19:11.817Z,2.00
2017-11-06T12:21:19.169Z,1.83
2017-11-06T12:23:25.410Z,1.80
2017-11-06T12:25:32.911Z,1.73
2017-11-06T12:27:41.884Z,1.90
2017-11-06T12:29:48.790Z,1.67
2017-11-06T12:32:00.085Z,1.60
2017-11-06T12:34:05.777Z,1.50
2017-11-06T12:38:36.428Z,1.63
2017-11-06T12:41:10.219Z,1.77
2017-11-06T12:43:35.913Z,2.50
2017-11-06T12:45:56.236Z,1.63
2017-11-06T12:48:07.126Z,1.97
2017-11-06T12:50:14.174Z,1.70
2017-11-06T12:52:20.513Z,14.93
2017-11-06T12:54:27.632Z,6.10
2017-11-06T12:56:38.372Z,2.23
2017-11-06T12:58:44.405Z,2.07
2017-11-06T13:00:54.457Z,1.80
2017-11-06T13:03:11.040Z,2.27
2017-11-06T13:05:16.598Z,2.13
2017-11-06T13:07:22.494Z,2.73
2017-11-06T13:09:29.228Z,2.50
2017-11-06T13:11:35.586Z,15.93
2017-11-06T13:13:41.988Z,1.50
2017-11-06T13:15:48.400Z,2.27
2017-11-06T13:17:55.920Z,1.53
2017-11-06T13:20:03.314Z,2.43
2017-11-06T13:22:35.708Z,1.90
2017-11-06T13:26:42.956Z,1.60
2017-11-06T13:46:49.915Z,1.73
2017-11-06T13:49:11.848Z,1.93
2017-11-06T13:51:22.667Z,1.70
2017-11-06T13:53:30.801Z,1.87
2017-11-06T13:55:37.760Z,1.73
2017-11-06T13:57:44.806Z,1.63
2017-11-06T13:59:55.323Z,1.80
2017-11-06T14:02:06.436Z,1.60
2017-11-06T14:04:14.085Z,83.53
2017-11-06T14:06:36.389Z,13.40
2017-11-06T14:15:10.387Z,2.17
2017-11-06T14:17:16.965Z,1424.10
2017-11-06T14:19:23.505Z,39.47
2017-11-06T14:21:30.591Z,3.30
2017-11-06T14:23:37.198Z,2.13
2017-11-06T14:25:43.272Z,2.47
2017-11-06T14:27:49.471Z,1.93
2017-11-06T14:29:56.028Z,2.70
2017-11-06T14:32:07.914Z,1.73
2017-11-06T14:39:46.157Z,3.17
2017-11-06T14:41:53.111Z,1.50
2017-11-06T14:43:59.726Z,1.60
2017-11-06T14:46:10.272Z,2.63
2017-11-06T14:48:19.562Z,2.30
2017-11-06T14:50:30.386Z,2.00
2017-11-06T14:52:40.984Z,2.00
2017-11-06T14:54:49.317Z,1.67
2017-11-06T14:56:57.131Z,1.77
2017-11-06T14:59:14.961Z,1.63
2017-11-06T15:01:26.491Z,1.60
2017-11-06T15:03:38.356Z,2.10
2017-11-06T15:05:47.114Z,2.23
2017-11-06T15:07:56.936Z,1.60
2017-11-06T15:10:15.710Z,2.03
2017-11-06T15:12:25.278Z,1.80
2017-11-06T15:14:33.609Z,1.90
2017-11-06T15:16:40.506Z,1.67
2017-11-06T15:18:47.205Z,2.00
2017-11-06T15:20:54.065Z,2.50
2017-11-06T15:23:08.606Z,1.90
2017-11-06T15:25:15.924Z,1.77
2017-11-06T15:27:21.512Z,2.07
2017-11-06T15:29:29.306Z,2.27
2017-11-06T15:31:35.042Z,1.70
2017-11-06T15:33:41.637Z,1.87
2017-11-06T15:35:49.263Z,2.10
2017-11-06T15:37:58.389Z,1.90
2017-11-06T15:40:08.309Z,1.60
2017-11-06T15:42:14.984Z,2.33
2017-11-06T15:44:21.909Z,2.00
2017-11-06T15:46:28.948Z,1.90
2017-11-06T15:48:35.810Z,2.33
2017-11-06T15:50:42.441Z,840.53
2017-11-06T15:52:52.646Z,516.40
2017-11-06T15:54:59.598Z,446.60
2017-11-06T15:57:09.349Z,414.77
2017-11-06T15:59:18.159Z,334.27
2017-11-06T16:01:25.754Z,363.00
2017-11-06T16:03:31.937Z,368.37
2017-11-06T16:05:41.549Z,399.23
2017-11-06T16:07:48.192Z,404.07
2017-11-06T16:09:56.867Z,389.57
2017-11-06T16:12:03.530Z,371.77
2017-11-06T16:14:12.032Z,370.90
2017-11-06T16:16:22.710Z,359.63
2017-11-06T16:18:29.301Z,364.57
2017-11-06T16:20:45.741Z,351.73
2017-11-06T16:22:56.347Z,334.50
2017-11-06T16:25:04.181Z,331.27
2017-11-06T16:27:24.720Z,327.33
2017-11-06T16:29:31.039Z,315.17
2017-11-06T16:31:37.746Z,310.93
2017-11-06T16:33:43.611Z,296.73
2017-11-06T16:35:49.455Z,292.03
2017-11-06T16:37:58.665Z,302.40
2017-11-06T16:40:11.532Z,290.13
2017-11-06T16:42:19.341Z,283.50
2017-11-06T16:44:29.758Z,282.63
2017-11-06T16:46:35.716Z,268.63
2017-11-06T16:48:42.710Z,265.80
2017-11-06T16:50:50.603Z,265.83
2017-11-06T16:53:00.778Z,250.10
2017-11-06T16:55:11.788Z,251.87
2017-11-06T16:57:18.182Z,242.50
2017-11-06T16:59:24.685Z,243.83
2017-11-06T17:01:31.032Z,243.73
2017-11-06T17:03:41.861Z,236.43
2017-11-06T17:05:48.813Z,238.27
2017-11-06T17:07:56.189Z,227.67
2017-11-06T17:10:04.225Z,227.17
2017-11-06T17:12:11.320Z,230.60
2017-11-06T17:14:17.821Z,221.97
2017-11-06T17:16:26.408Z,203.53
2017-11-06T17:18:34.268Z,211.90
2017-11-06T17:20:43.285Z,203.40
2017-11-06T17:22:49.768Z,207.80
2017-11-06T17:24:57.519Z,198.70
2017-11-06T17:27:09.076Z,192.13
2017-11-06T17:29:19.757Z,189.27
2017-11-06T17:31:25.899Z,193.00
2017-11-06T17:33:35.553Z,184.90
2017-11-06T17:35:42.364Z,179.10
2017-11-06T17:37:51.104Z,182.50
2017-11-06T17:39:57.555Z,176.27
2017-11-06T17:42:09.369Z,169.93
2017-11-06T17:44:17.754Z,166.30
2017-11-06T17:46:25.575Z,159.73
2017-11-06T17:48:32.107Z,156.37
2017-11-06T17:50:40.007Z,158.70
2017-11-06T17:52:48.940Z,158.17
2017-11-06T17:54:56.355Z,158.90
2017-11-06T17:57:05.404Z,156.23
2017-11-06T17:59:15.418Z,140.57
2017-11-06T18:01:21.564Z,143.47
2017-11-06T18:03:29.410Z,148.60
2017-11-06T18:05:35.869Z,141.97
2017-11-06T18:07:44.385Z,132.30
2017-11-06T18:09:51.561Z,132.57
2017-11-06T18:11:57.979Z,125.00
2017-11-06T18:14:04.114Z,120.03
2017-11-06T18:16:11.374Z,124.93
2017-11-06T18:18:20.386Z,120.73
2017-11-06T18:20:30.319Z,117.87
2017-11-06T18:22:36.531Z,113.80
2017-11-06T18:24:43.768Z,111.30
2017-11-06T18:27:09.725Z,124.23
2017-11-06T18:29:20.963Z,461.60
2017-11-06T18:31:27.096Z,479.07
2017-11-06T18:33:35.321Z,462.87
2017-11-06T18:35:41.497Z,436.63
2017-11-06T18:37:54.062Z,444.13
2017-11-06T18:40:06.565Z,435.27
2017-11-06T18:42:15.812Z,422.97
2017-11-06T18:44:23.521Z,408.23
2017-11-06T18:46:30.818Z,392.30
2017-11-06T18:48:39.113Z,388.90
2017-11-06T18:50:47.431Z,373.40
2017-11-06T18:52:58.163Z,359.50
2017-11-06T18:55:12.245Z,341.93
2017-11-06T18:57:24.334Z,339.57
2017-11-06T18:59:32.934Z,334.77
2017-11-06T19:01:42.982Z,329.30
2017-11-06T19:03:52.252Z,323.30
2017-11-06T19:08:21.213Z,305.50
2017-11-06T19:10:27.822Z,473.07
2017-11-06T19:12:36.747Z,492.97
2017-11-06T19:14:43.597Z,542.60
2017-11-06T19:16:49.950Z,501.93
2017-11-06T19:18:59.451Z,495.07
2017-11-06T19:23:23.439Z,485.07
2017-11-06T19:25:31.150Z,470.17
2017-11-06T19:27:40.254Z,462.67
2017-11-06T19:29:48.735Z,461.50
2017-11-06T19:31:59.013Z,450.93
2017-11-06T19:34:09.781Z,444.93
2017-11-06T19:36:18.941Z,437.77
2017-11-06T19:38:25.106Z,434.93
2017-11-06T19:40:32.730Z,423.37
2017-11-06T19:45:08.082Z,405.43
2017-11-06T19:47:15.065Z,390.10
2017-11-06T19:49:23.402Z,381.50
2017-11-06T19:51:31.629Z,374.30
2017-11-06T19:53:41.488Z,361.43
2017-11-06T19:55:50.221Z,356.77
2017-11-06T19:58:00.798Z,349.90
2017-11-06T20:00:17.940Z,334.97
2017-11-06T20:02:25.550Z,341.27
2017-11-06T20:04:34.280Z,328.50
2017-11-06T20:06:41.676Z,324.27
2017-11-06T20:08:50.054Z,298.83
2017-11-06T20:11:00.340Z,298.43
2017-11-06T20:13:11.953Z,297.40
2017-11-06T20:15:19.288Z,294.63
2017-11-06T20:17:26.377Z,286.27
2017-11-06T20:19:36.814Z,281.80
2017-11-06T20:21:54.462Z,272.30
2017-11-06T20:24:03.903Z,273.43
2017-11-06T20:26:14.371Z,267.10
2017-11-06T20:28:24.159Z,258.97
2017-11-06T20:30:38.727Z,259.37
2017-11-06T20:32:48.783Z,255.67
2017-11-06T20:35:11.486Z,255.33
2017-11-06T20:40:20.295Z,242.93
2017-11-06T20:44:59.547Z,222.47
2017-11-06T20:47:24.485Z,222.23
2017-11-06T20:49:43.170Z,227.37
2017-11-06T20:51:54.261Z,215.80
2017-11-06T20:54:01.279Z,217.03
2017-11-06T20:56:19.285Z,205.27
2017-11-06T20:58:27.913Z,201.07
2017-11-06T21:00:36.191Z,207.93
2017-11-06T21:02:43.998Z,197.53
2017-11-06T21:04:53.272Z,186.17
2017-11-06T21:07:02.110Z,198.57
2017-11-06T21:09:11.127Z,189.93
2017-11-06T21:11:19.815Z,182.03
2017-11-06T21:13:26.047Z,188.70
2017-11-06T21:15:33.720Z,178.43
2017-11-06T21:17:43.136Z,178.23
2017-11-06T21:19:51.007Z,171.57
2017-11-06T21:21:58.855Z,167.70
2017-11-06T21:24:11.166Z,165.10
2017-11-06T21:26:18.194Z,165.47
2017-11-06T21:28:26.967Z,164.33
2017-11-06T21:30:37.971Z,157.30
2017-11-06T21:32:45.088Z,155.17
2017-11-06T21:34:52.648Z,155.43
2017-11-06T21:37:00.020Z,156.17
2017-11-06T21:39:08.922Z,152.30
2017-11-06T21:41:23.918Z,147.23
2017-11-06T21:43:31.574Z,147.97
2017-11-06T21:45:42.131Z,150.23
2017-11-06T21:47:49.424Z,147.63
2017-11-06T21:50:15.084Z,133.20
2017-11-06T21:52:23.462Z,133.17
2017-11-06T21:54:30.587Z,130.23
2017-11-06T21:56:36.619Z,131.00
2017-11-06T21:58:48.085Z,125.93
2017-11-06T22:00:58.654Z,126.33
2017-11-06T22:03:05.355Z,121.60
2017-11-06T22:05:11.959Z,120.13
2017-11-06T22:07:21.248Z,120.60
2017-11-06T22:09:28.257Z,117.50
2017-11-06T22:11:35.457Z,111.40
2017-11-06T22:13:42.561Z,123.50
2017-11-06T22:15:49.730Z,109.90
2017-11-06T22:17:57.825Z,107.87
2017-11-06T22:20:17.236Z,106.67
2017-11-06T22:22:25.896Z,107.93
2017-11-06T22:24:32.104Z,102.83
2017-11-06T22:26:38.387Z,106.00
2017-11-06T22:28:44.904Z,99.60
2017-11-06T22:30:53.441Z,97.07
2017-11-06T22:33:02.411Z,97.73
2017-11-06T22:35:12.304Z,96.23
2017-11-06T22:37:19.336Z,91.83
2017-11-06T22:39:27.920Z,92.73
2017-11-06T22:41:34.988Z,92.37
2017-11-06T22:43:46.667Z,89.73
2017-11-06T22:45:55.051Z,88.63
2017-11-06T22:48:06.216Z,87.30
2017-11-06T22:50:35.999Z,83.10
2017-11-06T22:53:50.738Z,79.57
2017-11-06T22:56:07.773Z,78.00
2017-11-06T22:58:23.224Z,77.27
2017-11-06T23:00:33.357Z,73.10
2017-11-06T23:02:53.619Z,75.90
2017-11-06T23:05:27.960Z,65.30
2017-11-06T23:07:49.928Z,69.53
2017-11-06T23:10:08.708Z,69.57
2017-11-06T23:12:21.680Z,72.73
2017-11-06T23:14:38.254Z,67.90
2017-11-06T23:16:48.319Z,63.00
2017-11-06T23:18:56.913Z,66.40
2017-11-06T23:21:08.939Z,65.00
2017-11-06T23:23:17.809Z,62.73
2017-11-06T23:25:26.726Z,60.90
2017-11-06T23:27:35.135Z,59.60
2017-11-06T23:29:46.200Z,60.00
2017-11-06T23:31:57.390Z,57.43
2017-11-06T23:34:09.211Z,58.37
2017-11-06T23:36:20.626Z,55.60
2017-11-06T23:38:43.496Z,55.53
2017-11-06T23:40:53.427Z,54.20
2017-11-06T23:43:03.389Z,55.07
2017-11-06T23:45:14.202Z,52.43
2017-11-06T23:47:25.476Z,54.07
2017-11-06T23:49:34.269Z,52.30
2017-11-06T23:51:43.953Z,46.37
2017-11-06T23:53:54.039Z,48.87
2017-11-06T23:56:07.866Z,55.80
2017-11-06T23:58:17.489Z,46.60
